Time;durP1;ratioP1;P1;durP2;ratioP2;P2;SDS_P1;SDS_P2;PMS_P1;PMS_P2;Temp;Humidity;BMP_temperature;BMP_pressure;BME280_temperature;BME280_humidity;BME280_pressure;Samples;Min_cycle;Max_cycle;Signal;HPM_P1;HPM_P2
2023/12/25 00:01:38;;;;;;;;;;;;;;;9.03;70.73;99100.28;4448800;32;33259;-77
2023/12/25 00:04:06;;;;;;;;;;;;;;;9.21;69.53;99116.50;4452240;32;32675;-76
2023/12/25 00:06:34;;;;;;;;;;;;;;;9.08;70.06;99140.09;4452655;32;35075;-75
2023/12/25 00:09:01;;;;;;;;;;;;;;;8.97;70.07;99137.06;4452602;32;33902;-76
2023/12/25 00:11:28;;;;;;;;;;;;;;;8.89;70.18;99133.31;4452717;32;33476;-75
2023/12/25 00:13:57;;;;;;;;;;;;;;;8.90;70.03;99113.50;4444202;32;34613;-76
2023/12/25 00:16:26;;;;;;;;;;;;;;;8.75;70.74;99129.25;4452841;32;34300;-76
2023/12/25 00:18:55;;;;;;;;;;;;;;;9.05;69.77;99124.47;4449478;32;33696;-76
2023/12/25 00:21:23;;;;;;;;;;;;;;;8.84;70.19;99125.34;4450210;32;34144;-74
2023/12/25 00:23:50;;;;;;;;;;;;;;;8.74;70.72;99112.88;4444159;32;34709;-76
2023/12/25 00:26:18;;;;;;;;;;;;;;;8.83;70.71;99107.22;4444128;32;34430;-77
2023/12/25 00:28:46;;;;;;;;;;;;;;;8.93;70.82;99113.66;4450682;32;34169;-76
2023/12/25 00:31:14;;;;;;;;;;;;;;;8.85;70.77;99105.59;4433445;32;32727;-76
2023/12/25 00:33:41;;;;;;;;;;;;;;;8.91;70.92;99095.50;4437273;32;34392;-76
2023/12/25 00:36:11;;;;;;;;;;;;;;;9.04;70.66;99099.47;4447878;32;34247;-75
2023/12/25 00:38:38;;;;;;;;;;;;;;;8.72;71.33;99109.37;4449596;32;33499;-75
2023/12/25 00:41:06;;;;;;;;;;;;;;;8.76;71.11;99095.75;4449774;32;33823;-74
2023/12/25 00:43:33;;;;;;;;;;;;;;;8.71;71.11;99101.56;4451212;32;33938;-75
2023/12/25 00:46:03;;;;;;;;;;;;;;;8.83;70.74;99113.28;4448619;32;33989;-76
2023/12/25 00:48:32;;;;;;;;;;;;;;;8.72;70.89;99127.44;4451144;32;34723;-76
2023/12/25 00:51:00;;;;;;;;;;;;;;;8.58;71.56;99121.72;4452871;32;33554;-77
2023/12/25 00:53:28;;;;;;;;;;;;;;;8.71;70.38;99117.94;4449689;32;33813;-77
2023/12/25 00:55:55;;;;;;;;;;;;;;;8.52;70.85;99133.47;4452989;32;34177;-76
2023/12/25 00:58:22;;;;;;;;;;;;;;;8.66;70.33;99134.94;4443971;32;34417;-74
2023/12/25 01:00:50;;;;;;;;;;;;;;;8.78;69.70;99145.75;4437427;32;33749;-74
2023/12/25 01:03:17;;;;;;;;;;;;;;;8.55;70.78;99146.50;4452587;32;34129;-75
2023/12/25 01:05:45;;;;;;;;;;;;;;;8.49;70.97;99156.59;4449466;32;35131;-77
2023/12/25 01:08:12;;;;;;;;;;;;;;;8.71;69.98;99179.91;4444268;32;34762;-76
2023/12/25 01:10:39;;;;;;;;;;;;;;;8.58;70.51;99190.53;4453533;32;33542;-75
2023/12/25 01:13:06;;;;;;;;;;;;;;;8.64;70.49;99172.72;4448863;32;33902;-76
2023/12/25 01:15:34;;;;;;;;;;;;;;;8.46;70.87;99176.28;4447905;32;34821;-74
2023/12/25 01:18:02;;;;;;;;;;;;;;;8.46;70.82;99194.34;4436425;32;34260;-75
2023/12/25 01:20:29;;;;;;;;;;;;;;;8.47;71.15;99179.75;4453386;32;33628;-75
2023/12/25 01:22:56;;;;;;;;;;;;;;;8.65;70.54;99182.22;4449568;32;32869;-76
2023/12/25 01:25:24;;;;;;;;;;;;;;;8.63;70.15;99176.09;4452635;32;33569;-76
2023/12/25 01:27:51;;;;;;;;;;;;;;;8.65;70.22;99164.16;4436805;32;33885;-76
2023/12/25 01:30:20;;;;;;;;;;;;;;;8.33;71.18;99171.38;4444608;32;33045;-75
2023/12/25 01:32:47;;;;;;;;;;;;;;;8.46;71.02;99173.72;4438662;32;33833;-75
2023/12/25 01:35:15;;;;;;;;;;;;;;;8.31;71.41;99180.75;4451612;32;34174;-76
2023/12/25 01:37:42;;;;;;;;;;;;;;;8.40;71.75;99194.06;4450415;32;33787;-74
2023/12/25 01:40:15;;;;;;;;;;;;;;;8.50;71.11;99194.47;4453123;32;33933;-76
2023/12/25 01:42:43;;;;;;;;;;;;;;;8.52;71.03;99188.56;4452423;32;33400;-75
2023/12/25 01:45:12;;;;;;;;;;;;;;;8.48;70.92;99217.66;4437721;32;34033;-77
2023/12/25 01:47:39;;;;;;;;;;;;;;;8.31;71.62;99187.63;4451259;32;33747;-76
2023/12/25 01:50:07;;;;;;;;;;;;;;;8.57;70.77;99173.28;4443829;32;33574;-75
2023/12/25 01:52:35;;;;;;;;;;;;;;;8.43;71.30;99176.13;4452148;32;34902;-76
2023/12/25 01:55:03;;;;;;;;;;;;;;;8.56;70.94;99174.97;4438762;32;34181;-75
2023/12/25 01:57:33;;;;;;;;;;;;;;;8.45;71.59;99182.25;4438307;32;35700;-77
2023/12/25 02:00:01;;;;;;;;;;;;;;;8.50;71.58;99205.69;4451256;32;33259;-75
2023/12/25 02:02:38;;;;;;;;;;;;;;;8.61;70.80;99198.41;4438529;32;33787;-74
2023/12/25 02:05:07;;;;;;;;;;;;;;;8.43;71.54;99209.69;4431133;32;34361;-76
2023/12/25 02:07:35;;;;;;;;;;;;;;;8.75;70.12;99178.31;4434380;32;34364;-76
2023/12/25 02:10:02;;;;;;;;;;;;;;;8.82;69.48;99194.13;4438160;32;32657;-77
2023/12/25 02:12:29;;;;;;;;;;;;;;;8.39;71.25;99233.56;4442493;32;33345;-74
2023/12/25 02:14:57;;;;;;;;;;;;;;;8.14;72.61;99220.41;4450909;32;34220;-74
2023/12/25 02:17:24;;;;;;;;;;;;;;;8.29;71.95;99208.19;4436266;32;33642;-77
2023/12/25 02:19:52;;;;;;;;;;;;;;;8.67;71.09;99193.50;4440408;32;33482;-76
2023/12/25 02:22:20;;;;;;;;;;;;;;;8.50;71.32;99173.81;4437324;32;33927;-77
2023/12/25 02:24:49;;;;;;;;;;;;;;;8.53;71.78;99180.00;4450937;32;33990;-76
2023/12/25 02:27:16;;;;;;;;;;;;;;;8.52;71.73;99172.19;4436337;32;33649;-76
2023/12/25 02:29:44;;;;;;;;;;;;;;;8.39;72.08;99170.75;4434391;32;33853;-74
2023/12/25 02:32:11;;;;;;;;;;;;;;;8.62;71.80;99177.81;4450707;32;35057;-76
2023/12/25 02:34:39;;;;;;;;;;;;;;;8.76;71.32;99177.50;4450264;32;34909;-75
2023/12/25 02:37:07;;;;;;;;;;;;;;;8.74;71.28;99164.53;4443537;32;35095;-75
2023/12/25 02:39:34;;;;;;;;;;;;;;;8.68;71.44;99168.56;4450889;32;33460;-76
2023/12/25 02:42:01;;;;;;;;;;;;;;;8.42;72.06;99187.28;4446694;32;34131;-75
2023/12/25 02:44:29;;;;;;;;;;;;;;;8.60;71.76;99201.81;4436127;32;34984;-75
2023/12/25 02:46:56;;;;;;;;;;;;;;;8.88;70.83;99197.81;4444005;32;33233;-77
2023/12/25 02:49:23;;;;;;;;;;;;;;;8.81;71.25;99202.72;4452643;32;34028;-76
2023/12/25 02:51:51;;;;;;;;;;;;;;;8.57;72.06;99222.31;4453798;32;34002;-75
2023/12/25 02:54:18;;;;;;;;;;;;;;;8.65;71.87;99231.28;4451990;32;34177;-77
2023/12/25 02:56:46;;;;;;;;;;;;;;;8.41;72.96;99237.13;4452747;32;34252;-77
2023/12/25 02:59:13;;;;;;;;;;;;;;;8.56;72.50;99225.72;4452700;32;33982;-76
2023/12/25 03:01:40;;;;;;;;;;;;;;;8.63;72.31;99235.47;4452112;32;33689;-74
2023/12/25 03:04:08;;;;;;;;;;;;;;;8.64;72.14;99239.84;4453243;32;34187;-76
2023/12/25 03:06:35;;;;;;;;;;;;;;;8.79;71.75;99230.19;4428078;32;786063;-74
2023/12/25 03:09:03;;;;;;;;;;;;;;;8.99;71.02;99237.88;4452506;32;32831;-76
2023/12/25 03:11:30;;;;;;;;;;;;;;;8.97;71.42;99234.34;4451442;32;34221;-76
2023/12/25 03:13:57;;;;;;;;;;;;;;;8.92;71.75;99216.06;4454190;32;34058;-76
2023/12/25 03:16:24;;;;;;;;;;;;;;;8.91;71.66;99218.59;4440240;32;33885;-76
2023/12/25 03:18:52;;;;;;;;;;;;;;;9.03;71.46;99216.53;4439025;32;33552;-76
2023/12/25 03:21:21;;;;;;;;;;;;;;;9.14;71.40;99227.31;4439723;32;32747;-75
2023/12/25 03:23:48;;;;;;;;;;;;;;;9.11;71.59;99224.59;4453964;32;34309;-76
2023/12/25 03:26:15;;;;;;;;;;;;;;;9.04;72.26;99216.59;4448687;32;34999;-75
2023/12/25 03:28:43;;;;;;;;;;;;;;;9.09;72.29;99214.19;4453865;32;34054;-76
2023/12/25 03:31:10;;;;;;;;;;;;;;;9.01;72.69;99213.88;4453986;32;33827;-75
2023/12/25 03:33:38;;;;;;;;;;;;;;;9.14;72.53;99207.50;4440356;32;35001;-77
2023/12/25 03:36:07;;;;;;;;;;;;;;;9.36;72.14;99213.53;4438821;32;34739;-75
2023/12/25 03:38:34;;;;;;;;;;;;;;;9.50;71.22;99220.12;4436900;32;34043;-76
2023/12/25 03:41:01;;;;;;;;;;;;;;;9.39;71.73;99218.84;4437771;32;33607;-76
2023/12/25 03:43:28;;;;;;;;;;;;;;;9.45;72.24;99211.34;4446601;32;34114;-75
2023/12/25 03:45:56;;;;;;;;;;;;;;;9.29;72.76;99215.00;4452791;32;34295;-75
2023/12/25 03:48:23;;;;;;;;;;;;;;;9.32;73.43;99203.91;4440022;32;33410;-74
2023/12/25 03:50:51;;;;;;;;;;;;;;;9.30;73.39;99202.97;4453239;32;34098;-76
2023/12/25 03:53:18;;;;;;;;;;;;;;;9.22;74.46;99208.69;4440000;32;32527;-76
2023/12/25 03:55:46;;;;;;;;;;;;;;;9.02;75.68;99202.72;4453709;32;33771;-76
2023/12/25 03:58:13;;;;;;;;;;;;;;;9.15;75.91;99204.09;4453314;32;33331;-76
2023/12/25 04:00:41;;;;;;;;;;;;;;;9.31;75.82;99202.13;4449775;32;34154;-76
2023/12/25 04:03:08;;;;;;;;;;;;;;;9.33;76.46;99203.06;4453910;32;35063;-76
2023/12/25 04:05:36;;;;;;;;;;;;;;;9.31;76.84;99205.63;4454070;32;34418;-77
2023/12/25 04:08:04;;;;;;;;;;;;;;;9.40;76.89;99215.44;4454954;32;32634;-75
2023/12/25 04:10:31;;;;;;;;;;;;;;;9.47;76.86;99217.44;4450850;32;33915;-76
2023/12/25 04:12:58;;;;;;;;;;;;;;;9.46;76.96;99215.66;4450900;32;34701;-74
2023/12/25 04:15:26;;;;;;;;;;;;;;;9.70;76.30;99204.53;4453769;32;34775;-75
2023/12/25 04:17:53;;;;;;;;;;;;;;;9.83;76.37;99207.66;4453999;32;33570;-76
2023/12/25 04:20:21;;;;;;;;;;;;;;;9.80;77.39;99206.66;4435325;32;34079;-76
2023/12/25 04:22:49;;;;;;;;;;;;;;;9.90;77.41;99213.06;4451439;32;33736;-74
2023/12/25 04:25:16;;;;;;;;;;;;;;;10.04;77.08;99212.75;4443091;32;33972;-75
2023/12/25 04:27:45;;;;;;;;;;;;;;;10.09;77.57;99212.03;4446052;32;33383;-75
2023/12/25 04:30:12;;;;;;;;;;;;;;;9.90;78.71;99206.16;4451707;32;33931;-76
2023/12/25 04:32:40;;;;;;;;;;;;;;;10.16;78.28;99219.19;4441447;32;34194;-76
2023/12/25 04:35:08;;;;;;;;;;;;;;;10.21;78.27;99215.06;4453494;32;33635;-75
2023/12/25 04:37:35;;;;;;;;;;;;;;;10.28;78.14;99209.31;4440139;32;33288;-75
2023/12/25 04:40:03;;;;;;;;;;;;;;;10.30;78.13;99215.44;4425662;32;32531;-76
2023/12/25 04:42:31;;;;;;;;;;;;;;;10.01;78.51;99204.00;4453680;32;34770;-76
2023/12/25 04:45:00;;;;;;;;;;;;;;;10.35;78.29;99208.75;4437064;32;33630;-75
2023/12/25 04:47:27;;;;;;;;;;;;;;;10.40;78.17;99211.47;4448083;32;32898;-76
2023/12/25 04:49:55;;;;;;;;;;;;;;;10.65;77.35;99202.88;4450982;32;34687;-75
2023/12/25 04:52:22;;;;;;;;;;;;;;;10.63;77.64;99207.13;4436935;32;34284;-76
2023/12/25 04:54:49;;;;;;;;;;;;;;;10.76;77.43;99196.34;4446042;32;33779;-76
2023/12/25 04:57:16;;;;;;;;;;;;;;;10.70;77.71;99201.34;4448821;32;33881;-75
2023/12/25 04:59:44;;;;;;;;;;;;;;;10.79;77.61;99206.81;4445654;32;34204;-75
2023/12/25 05:02:12;;;;;;;;;;;;;;;10.70;77.75;99222.06;4453641;32;34378;-75
2023/12/25 05:04:39;;;;;;;;;;;;;;;10.89;77.25;99222.66;4439206;32;34777;-75
2023/12/25 05:07:07;;;;;;;;;;;;;;;10.82;77.11;99216.41;4449617;32;33622;-74
2023/12/25 05:09:34;;;;;;;;;;;;;;;10.96;76.77;99222.06;4453006;32;33630;-75
2023/12/25 05:12:01;;;;;;;;;;;;;;;10.87;77.23;99211.38;4437128;32;34962;-76
2023/12/25 05:14:29;;;;;;;;;;;;;;;11.00;76.46;99209.25;4452147;32;34686;-74
2023/12/25 05:16:56;;;;;;;;;;;;;;;11.14;76.02;99212.28;4446147;32;33116;-76
2023/12/25 05:19:24;;;;;;;;;;;;;;;11.14;75.79;99209.69;4438950;32;33923;-75
2023/12/25 05:21:51;;;;;;;;;;;;;;;11.21;75.48;99206.47;4455482;32;34276;-76
2023/12/25 05:24:18;;;;;;;;;;;;;;;11.02;76.00;99198.94;4452544;32;35736;-74
2023/12/25 05:26:45;;;;;;;;;;;;;;;11.05;76.13;99204.25;4453059;32;33230;-76
2023/12/25 05:29:13;;;;;;;;;;;;;;;11.07;75.99;99207.75;4439068;32;34912;-75
2023/12/25 05:31:40;;;;;;;;;;;;;;;10.83;76.84;99205.19;4451995;32;34055;-75
2023/12/25 05:34:07;;;;;;;;;;;;;;;11.00;77.45;99211.84;4457585;32;34681;-76
2023/12/25 05:36:35;;;;;;;;;;;;;;;11.17;76.87;99209.81;4452574;32;33398;-74
2023/12/25 05:39:03;;;;;;;;;;;;;;;11.17;76.97;99211.53;4447982;32;34180;-75
2023/12/25 05:41:40;;;;;;;;;;;;;;;11.20;76.95;99209.03;4453174;32;34154;-75
2023/12/25 05:44:08;;;;;;;;;;;;;;;11.27;76.59;99212.72;4452812;32;34417;-77
2023/12/25 05:46:36;;;;;;;;;;;;;;;11.18;76.81;99221.97;4438225;32;33988;-75
2023/12/25 05:49:03;;;;;;;;;;;;;;;11.23;76.68;99223.81;4456981;32;34106;-75
2023/12/25 05:51:31;;;;;;;;;;;;;;;11.35;76.33;99230.25;4446631;32;34055;-76
2023/12/25 05:53:58;;;;;;;;;;;;;;;11.35;75.95;99232.84;4447195;32;35037;-75
2023/12/25 05:56:25;;;;;;;;;;;;;;;11.33;76.48;99236.25;4447440;32;34101;-75
2023/12/25 05:58:53;;;;;;;;;;;;;;;11.39;75.66;99241.63;4447740;32;32791;-75
2023/12/25 06:01:21;;;;;;;;;;;;;;;11.30;76.02;99241.31;4447422;32;34371;-76
2023/12/25 06:03:49;;;;;;;;;;;;;;;11.42;75.45;99246.91;4433999;32;34824;-76
2023/12/25 06:06:17;;;;;;;;;;;;;;;11.71;73.56;99242.66;4447693;32;33370;-75
2023/12/25 06:08:44;;;;;;;;;;;;;;;11.63;72.86;99240.63;4447507;32;34732;-76
2023/12/25 06:11:12;;;;;;;;;;;;;;;11.38;73.67;99239.87;4447472;32;34169;-75
2023/12/25 06:13:39;;;;;;;;;;;;;;;11.59;73.22;99245.75;4445068;32;33458;-75
2023/12/25 06:16:06;;;;;;;;;;;;;;;11.64;73.33;99242.41;4446759;32;33540;-76
2023/12/25 06:18:34;;;;;;;;;;;;;;;11.64;72.79;99237.22;4452175;32;35486;-75
2023/12/25 06:21:02;;;;;;;;;;;;;;;11.66;72.82;99248.53;4441651;32;34868;-75
2023/12/25 06:23:29;;;;;;;;;;;;;;;11.63;72.49;99251.00;4452854;32;33160;-76
2023/12/25 06:25:58;;;;;;;;;;;;;;;11.54;72.66;99262.84;4454417;32;33543;-75
2023/12/25 06:28:25;;;;;;;;;;;;;;;11.60;72.49;99260.47;4454041;32;34859;-75
2023/12/25 06:30:53;;;;;;;;;;;;;;;11.28;73.79;99253.34;4452536;32;33803;-76
2023/12/25 06:33:20;;;;;;;;;;;;;;;11.57;72.16;99256.88;4454170;32;34680;-76
2023/12/25 06:35:48;;;;;;;;;;;;;;;11.69;71.46;99259.00;4454376;32;33192;-77
2023/12/25 06:38:15;;;;;;;;;;;;;;;11.63;71.09;99261.37;4454308;32;34989;-76
2023/12/25 06:40:42;;;;;;;;;;;;;;;11.73;70.37;99273.84;4427435;32;34163;-75
2023/12/25 06:43:10;;;;;;;;;;;;;;;11.88;69.59;99269.13;4453804;32;35141;-74
2023/12/25 06:45:37;;;;;;;;;;;;;;;11.67;70.38;99274.53;4454143;32;31981;-75
2023/12/25 06:48:05;;;;;;;;;;;;;;;11.59;70.63;99276.87;4454386;32;34017;-77
2023/12/25 06:50:32;;;;;;;;;;;;;;;11.67;70.56;99284.03;4453768;32;34150;-77
2023/12/25 06:53:00;;;;;;;;;;;;;;;11.63;70.71;99287.31;4440156;32;32618;-76
2023/12/25 06:55:27;;;;;;;;;;;;;;;11.77;69.96;99299.91;4453864;32;33141;-76
2023/12/25 06:57:55;;;;;;;;;;;;;;;11.68;69.83;99301.34;4451674;32;34863;-77
2023/12/25 07:00:23;;;;;;;;;;;;;;;11.70;69.94;99310.06;4452022;32;33880;-76
2023/12/25 07:02:53;;;;;;;;;;;;;;;11.76;69.71;99305.06;4445352;32;34396;-77
2023/12/25 07:05:22;;;;;;;;;;;;;;;11.76;69.81;99311.16;4453049;32;33315;-77
2023/12/25 07:07:50;;;;;;;;;;;;;;;11.79;69.60;99310.34;4453748;32;33677;-76
2023/12/25 07:10:18;;;;;;;;;;;;;;;11.71;69.77;99314.44;4454975;32;34182;-75
2023/12/25 07:12:45;;;;;;;;;;;;;;;11.59;70.08;99318.38;4452609;32;34903;-77
2023/12/25 07:15:12;;;;;;;;;;;;;;;11.86;69.48;99317.50;4451073;32;33821;-76
2023/12/25 07:17:40;;;;;;;;;;;;;;;11.79;69.63;99306.03;4454248;32;34003;-75
2023/12/25 07:20:08;;;;;;;;;;;;;;;11.89;69.63;99307.25;4454088;32;34235;-76
2023/12/25 07:22:35;;;;;;;;;;;;;;;12.02;68.94;99308.53;4443783;32;34564;-76
2023/12/25 07:25:05;;;;;;;;;;;;;;;12.13;68.32;99312.31;4454045;32;33125;-75
2023/12/25 07:27:32;;;;;;;;;;;;;;;12.16;68.13;99312.41;4454107;32;34855;-77
2023/12/25 07:30:00;;;;;;;;;;;;;;;12.35;67.51;99319.03;4453001;32;34297;-75
2023/12/25 07:32:28;;;;;;;;;;;;;;;12.22;67.63;99316.03;4453540;32;34174;-77
2023/12/25 07:34:56;;;;;;;;;;;;;;;12.16;67.64;99321.91;4430598;32;32596;-76
2023/12/25 07:37:23;;;;;;;;;;;;;;;12.20;67.40;99303.88;4453366;32;34063;-75
2023/12/25 07:39:51;;;;;;;;;;;;;;;12.23;67.18;99308.28;4437122;32;34957;-75
2023/12/25 07:42:18;;;;;;;;;;;;;;;12.32;66.73;99310.28;4455754;32;34809;-76
2023/12/25 07:44:47;;;;;;;;;;;;;;;12.29;66.95;99313.66;4429059;32;32505;-75
2023/12/25 07:47:15;;;;;;;;;;;;;;;12.31;66.79;99324.97;4455948;32;34834;-75
2023/12/25 07:49:42;;;;;;;;;;;;;;;12.21;67.03;99328.16;4451225;32;34238;-76
2023/12/25 07:52:09;;;;;;;;;;;;;;;12.22;67.15;99326.41;4452099;32;33709;-76
2023/12/25 07:54:37;;;;;;;;;;;;;;;12.14;67.34;99319.25;4453351;32;35408;-75
2023/12/25 07:57:04;;;;;;;;;;;;;;;12.23;67.26;99325.56;4450900;32;33890;-76
2023/12/25 07:59:31;;;;;;;;;;;;;;;12.27;67.19;99333.50;4419751;32;34442;-75
2023/12/25 08:01:59;;;;;;;;;;;;;;;12.21;67.44;99335.94;4450299;32;33994;-76
2023/12/25 08:04:26;;;;;;;;;;;;;;;12.39;66.58;99341.66;4422620;32;32466;-76
2023/12/25 08:06:54;;;;;;;;;;;;;;;12.42;66.20;99350.38;4452753;32;34995;-75
2023/12/25 08:09:22;;;;;;;;;;;;;;;12.31;66.76;99363.06;4449025;32;34850;-75
2023/12/25 08:11:50;;;;;;;;;;;;;;;12.49;66.36;99345.41;4452434;32;34208;-77
2023/12/25 08:14:17;;;;;;;;;;;;;;;12.45;66.11;99346.16;4456046;32;34200;-77
2023/12/25 08:16:44;;;;;;;;;;;;;;;12.52;66.00;99342.06;4455015;32;34339;-76
2023/12/25 08:19:11;;;;;;;;;;;;;;;12.71;65.17;99353.84;4459103;32;33793;-75
2023/12/25 08:21:40;;;;;;;;;;;;;;;12.81;64.50;99352.41;4452555;32;34887;-77
2023/12/25 08:24:08;;;;;;;;;;;;;;;12.72;64.82;99366.88;4439337;32;33547;-75
2023/12/25 08:26:36;;;;;;;;;;;;;;;12.66;65.09;99376.22;4445148;32;35139;-76
2023/12/25 08:29:04;;;;;;;;;;;;;;;12.56;65.47;99377.69;4445885;32;35223;-75
2023/12/25 08:31:32;;;;;;;;;;;;;;;12.58;65.55;99381.19;4449259;32;34232;-74
2023/12/25 08:34:00;;;;;;;;;;;;;;;12.62;65.33;99380.44;4450966;32;33033;-75
2023/12/25 08:36:27;;;;;;;;;;;;;;;12.67;65.37;99373.69;4451194;32;33521;-76
2023/12/25 08:38:55;;;;;;;;;;;;;;;12.65;65.50;99375.34;4452026;32;33865;-73
2023/12/25 08:41:22;;;;;;;;;;;;;;;12.76;65.42;99378.25;4452097;32;34084;-75
2023/12/25 08:43:50;;;;;;;;;;;;;;;12.81;65.15;99379.28;4453569;32;33689;-74
2023/12/25 08:46:17;;;;;;;;;;;;;;;12.76;65.33;99376.53;4453004;32;34966;-77
2023/12/25 08:48:44;;;;;;;;;;;;;;;12.98;64.42;99391.03;4461294;32;33750;-75
2023/12/25 08:51:12;;;;;;;;;;;;;;;12.90;64.73;99396.84;4453306;32;34215;-75
2023/12/25 08:53:39;;;;;;;;;;;;;;;12.94;64.54;99403.88;4446808;32;34057;-76
2023/12/25 08:56:07;;;;;;;;;;;;;;;12.77;65.20;99406.87;4450840;32;33986;-77
2023/12/25 08:58:35;;;;;;;;;;;;;;;12.91;65.04;99404.69;4448884;32;33502;-78
2023/12/25 09:01:02;;;;;;;;;;;;;;;13.04;64.71;99421.53;4437852;32;35960;-77
2023/12/25 09:03:30;;;;;;;;;;;;;;;12.90;65.21;99417.62;4450702;32;33726;-78
2023/12/25 09:05:57;;;;;;;;;;;;;;;12.94;65.18;99419.47;4436430;32;33579;-76
2023/12/25 09:08:24;;;;;;;;;;;;;;;12.94;67.58;99406.47;4452228;32;33946;-77
2023/12/25 09:10:52;;;;;;;;;;;;;;;12.84;66.79;99409.66;4448846;32;35014;-76
2023/12/25 09:13:19;;;;;;;;;;;;;;;12.91;66.32;99398.63;4452694;32;34543;-76
2023/12/25 09:15:46;;;;;;;;;;;;;;;12.93;66.57;99386.53;4451616;32;34067;-75
2023/12/25 09:18:15;;;;;;;;;;;;;;;12.97;66.29;99384.06;4453584;32;34213;-76
2023/12/25 09:20:43;;;;;;;;;;;;;;;13.06;65.97;99378.25;4438321;32;33598;-76
2023/12/25 09:23:10;;;;;;;;;;;;;;;12.84;66.50;99394.94;4453436;32;33891;-76
2023/12/25 09:25:37;;;;;;;;;;;;;;;12.94;66.28;99391.78;4452193;32;34674;-76
2023/12/25 09:28:05;;;;;;;;;;;;;;;12.88;66.60;99393.31;4453331;32;34065;-76
2023/12/25 09:30:33;;;;;;;;;;;;;;;12.95;66.33;99400.47;4452215;32;33841;-76
2023/12/25 09:33:00;;;;;;;;;;;;;;;12.88;66.56;99406.31;4452296;32;33562;-77
2023/12/25 09:35:27;;;;;;;;;;;;;;;12.95;66.49;99413.47;4452860;32;34747;-76
2023/12/25 09:37:55;;;;;;;;;;;;;;;12.94;66.58;99419.47;4452610;32;34220;-76
2023/12/25 09:40:23;;;;;;;;;;;;;;;13.20;66.33;99411.56;4452009;32;34694;-76
2023/12/25 09:42:52;;;;;;;;;;;;;;;13.21;66.81;99400.31;4450965;32;33187;-76
2023/12/25 09:45:19;;;;;;;;;;;;;;;13.20;66.88;99390.75;4452719;32;33878;-76
2023/12/25 09:47:47;;;;;;;;;;;;;;;13.07;67.76;99392.13;4438898;32;34170;-76
2023/12/25 09:50:14;;;;;;;;;;;;;;;13.08;68.13;99399.97;4452786;32;34340;-76
2023/12/25 09:52:42;;;;;;;;;;;;;;;12.91;69.07;99398.63;4437396;32;33281;-76
2023/12/25 09:55:09;;;;;;;;;;;;;;;12.83;69.51;99394.91;4435373;32;33578;-74
2023/12/25 09:57:36;;;;;;;;;;;;;;;13.28;65.81;99404.84;4445587;32;33654;-75
2023/12/25 10:00:04;;;;;;;;;;;;;;;13.10;66.49;99400.91;4438594;32;35015;-77
2023/12/25 10:02:32;;;;;;;;;;;;;;;13.15;66.64;99388.00;4454445;32;34204;-76
2023/12/25 10:05:01;;;;;;;;;;;;;;;13.30;65.80;99380.66;4439481;32;34281;-76
2023/12/25 10:07:28;;;;;;;;;;;;;;;13.30;65.87;99365.06;4453575;32;33997;-77
2023/12/25 10:09:57;;;;;;;;;;;;;;;13.23;66.29;99391.72;4454298;32;34306;-77
2023/12/25 10:12:24;;;;;;;;;;;;;;;13.29;71.07;99381.50;4454223;32;33451;-76
2023/12/25 10:14:52;;;;;;;;;;;;;;;13.14;68.85;99381.94;4436547;32;32816;-76
2023/12/25 10:17:19;;;;;;;;;;;;;;;13.42;66.92;99354.09;4437645;32;33394;-76
2023/12/25 10:19:54;;;;;;;;;;;;;;;13.37;69.62;99348.78;4453989;32;32688;-75
2023/12/25 10:22:32;;;;;;;;;;;;;;;13.33;67.43;99353.87;4452973;32;34288;-76
2023/12/25 10:25:06;;;;;;;;;;;;;;;13.32;67.36;99362.50;4431840;32;35139;-74
2023/12/25 10:27:34;;;;;;;;;;;;;;;13.51;66.98;99358.66;4451188;32;33703;-75
2023/12/25 10:30:03;;;;;;;;;;;;;;;13.70;66.09;99362.63;4451396;32;33918;-74
2023/12/25 10:32:31;;;;;;;;;;;;;;;13.68;66.03;99356.50;4450944;32;33084;-78
2023/12/25 10:35:09;;;;;;;;;;;;;;;13.81;65.67;99366.38;4448181;32;34942;-75
2023/12/25 10:37:39;;;;;;;;;;;;;;;13.68;66.22;99382.53;4453998;32;33033;-75
2023/12/25 10:40:25;;;;;;;;;;;;;;;13.86;65.21;99390.78;4450145;32;34276;-74
2023/12/25 10:42:53;;;;;;;;;;;;;;;13.99;64.22;99393.72;4452426;32;33369;-76
2023/12/25 10:45:22;;;;;;;;;;;;;;;13.73;65.10;99400.03;4426197;32;31628;-76
2023/12/25 10:47:50;;;;;;;;;;;;;;;13.69;64.76;99376.47;4433988;32;34444;-75
2023/12/25 10:50:22;;;;;;;;;;;;;;;13.70;64.84;99360.91;4453424;32;34192;-76
2023/12/25 10:52:50;;;;;;;;;;;;;;;13.76;64.42;99379.25;4453697;32;33783;-75
2023/12/25 10:55:37;;;;;;;;;;;;;;;13.95;63.53;99375.41;4438981;32;34161;-76
2023/12/25 10:58:06;;;;;;;;;;;;;;;13.98;63.57;99363.28;4451369;32;34733;-74
2023/12/25 11:00:33;;;;;;;;;;;;;;;13.98;63.24;99347.66;4451929;32;34220;-74
2023/12/25 11:03:01;;;;;;;;;;;;;;;13.77;63.35;99348.91;4430352;32;33756;-75
2023/12/25 11:05:30;;;;;;;;;;;;;;;13.81;62.83;99355.97;4450745;32;33794;-74
2023/12/25 11:08:01;;;;;;;;;;;;;;;13.84;63.27;99361.22;4439302;32;34023;-75
2023/12/25 11:10:28;;;;;;;;;;;;;;;13.83;63.77;99364.69;4453161;32;33283;-75
2023/12/25 11:12:56;;;;;;;;;;;;;;;13.74;63.80;99374.88;4453377;32;33945;-75
2023/12/25 11:15:24;;;;;;;;;;;;;;;13.93;63.10;99377.09;4452799;32;34235;-75
2023/12/25 11:17:51;;;;;;;;;;;;;;;13.66;64.00;99368.59;4438198;32;34306;-74
2023/12/25 11:20:19;;;;;;;;;;;;;;;13.90;63.34;99363.97;4453835;32;33573;-74
2023/12/25 11:22:46;;;;;;;;;;;;;;;13.71;64.00;99385.19;4453292;32;33243;-74
2023/12/25 11:25:17;;;;;;;;;;;;;;;13.68;64.37;99370.38;4451064;32;34196;-75
2023/12/25 11:27:51;;;;;;;;;;;;;;;13.91;63.56;99391.78;4434463;32;33954;-75
2023/12/25 11:30:19;;;;;;;;;;;;;;;13.72;63.74;99360.94;4451117;32;33866;-74
2023/12/25 11:32:48;;;;;;;;;;;;;;;13.64;64.16;99342.53;4451864;32;33712;-75
2023/12/25 11:35:24;;;;;;;;;;;;;;;13.65;63.76;99379.84;4453228;32;34881;-74
2023/12/25 11:38:03;;;;;;;;;;;;;;;13.80;63.66;99374.16;4452737;32;34281;-75
2023/12/25 11:40:36;;;;;;;;;;;;;;;13.86;63.61;99362.16;4440199;32;33977;-73
2023/12/25 11:43:07;;;;;;;;;;;;;;;13.84;63.83;99361.22;4439441;32;33563;-74
2023/12/25 11:45:36;;;;;;;;;;;;;;;13.90;63.89;99366.59;4437452;32;33059;-75
2023/12/25 11:48:05;;;;;;;;;;;;;;;13.95;63.76;99379.72;4450284;32;34247;-75
2023/12/25 11:50:33;;;;;;;;;;;;;;;14.01;63.61;99368.59;4439522;32;33903;-73
2023/12/25 11:53:00;;;;;;;;;;;;;;;13.93;63.69;99382.28;4438670;32;32954;-76
2023/12/25 11:55:27;;;;;;;;;;;;;;;14.03;63.49;99392.94;4454021;32;34173;-74
2023/12/25 11:57:56;;;;;;;;;;;;;;;14.07;63.10;99379.16;4439389;32;34778;-76
2023/12/25 12:00:26;;;;;;;;;;;;;;;13.89;63.91;99375.25;4438984;32;34601;-74
2023/12/25 12:02:53;;;;;;;;;;;;;;;14.00;63.56;99391.13;4438424;32;33405;-74
2023/12/25 12:05:21;;;;;;;;;;;;;;;14.08;63.55;99376.59;4453334;32;34232;-73
2023/12/25 12:07:48;;;;;;;;;;;;;;;13.95;63.96;99372.78;4452714;32;34942;-74
2023/12/25 12:10:17;;;;;;;;;;;;;;;13.97;63.77;99354.59;4452623;32;34212;-75
2023/12/25 12:12:45;;;;;;;;;;;;;;;13.84;64.26;99356.03;4452298;32;33910;-74
2023/12/25 12:15:12;;;;;;;;;;;;;;;14.02;63.97;99355.56;4438538;32;33482;-77
2023/12/25 12:17:40;;;;;;;;;;;;;;;14.10;63.61;99347.94;4451105;32;33882;-77
2023/12/25 12:20:07;;;;;;;;;;;;;;;14.06;63.64;99359.13;4451946;32;34350;-74
2023/12/25 12:22:34;;;;;;;;;;;;;;;14.17;63.64;99370.69;4436994;32;32696;-73
2023/12/25 12:25:15;;;;;;;;;;;;;;;14.02;64.07;99386.81;4430285;32;33896;-75
2023/12/25 12:27:42;;;;;;;;;;;;;;;14.03;64.34;99403.34;4448536;32;35005;-77
2023/12/25 12:30:10;;;;;;;;;;;;;;;14.14;63.85;99401.91;4451278;32;33991;-76
2023/12/25 12:32:38;;;;;;;;;;;;;;;14.18;63.71;99408.94;4451856;32;33647;-76
2023/12/25 12:35:05;;;;;;;;;;;;;;;14.11;63.76;99409.62;4435316;32;33926;-76
2023/12/25 12:37:33;;;;;;;;;;;;;;;14.21;63.23;99403.78;4436877;32;33480;-76
2023/12/25 12:40:01;;;;;;;;;;;;;;;14.10;63.56;99406.16;4447385;32;35095;-74
2023/12/25 12:42:30;;;;;;;;;;;;;;;14.17;63.34;99396.75;4452560;32;33254;-75
2023/12/25 12:44:58;;;;;;;;;;;;;;;14.28;63.04;99403.09;4447621;32;34301;-75
2023/12/25 12:47:25;;;;;;;;;;;;;;;14.34;62.60;99416.25;4418711;32;33569;-73
2023/12/25 12:49:52;;;;;;;;;;;;;;;14.46;62.48;99391.34;4432080;32;33970;-76
2023/12/25 12:52:20;;;;;;;;;;;;;;;14.23;62.96;99409.91;4452811;32;34055;-75
2023/12/25 12:54:47;;;;;;;;;;;;;;;14.24;63.24;99406.47;4452414;32;34643;-77